createdAt,value
2018-05-31T00:01:18.098Z,76.65
2018-05-31T00:02:22.657Z,76.59
2018-05-31T00:04:48.615Z,76.65
2018-05-31T00:05:54.004Z,76.65
2018-05-31T00:06:58.545Z,76.50
2018-05-31T00:08:03.116Z,76.40
2018-05-31T00:09:07.745Z,76.45
2018-05-31T00:10:12.248Z,76.49
2018-05-31T00:11:16.757Z,76.39
2018-05-31T00:12:21.680Z,76.25
2018-05-31T00:13:26.226Z,76.26
2018-05-31T00:15:46.059Z,76.62
2018-05-31T00:16:50.719Z,76.75
2018-05-31T00:17:55.647Z,76.80
2018-05-31T00:19:00.440Z,76.83
2018-05-31T00:20:05.191Z,76.71
2018-05-31T00:21:09.780Z,76.76
2018-05-31T00:22:14.331Z,76.79
2018-05-31T00:26:02.107Z,77.25
2018-05-31T00:27:06.664Z,77.23
2018-05-31T00:28:11.570Z,77.16
2018-05-31T00:30:37.578Z,76.97
2018-05-31T00:31:51.870Z,76.86
2018-05-31T00:32:56.414Z,77.11
2018-05-31T00:34:00.912Z,77.21
2018-05-31T00:35:05.611Z,77.45
2018-05-31T00:36:10.129Z,77.62
2018-05-31T00:38:37.172Z,77.85
2018-05-31T00:39:41.708Z,77.95
2018-05-31T00:40:46.362Z,77.81
2018-05-31T00:42:06.329Z,77.70
2018-05-31T00:43:10.898Z,77.79
2018-05-31T00:44:15.548Z,77.88
2018-05-31T00:45:20.430Z,77.95
2018-05-31T00:46:24.993Z,77.96
2018-05-31T00:47:32.507Z,78.17
2018-05-31T00:48:44.511Z,78.29
2018-05-31T00:51:11.419Z,78.40
2018-05-31T00:52:20.031Z,78.26
2018-05-31T00:53:24.653Z,78.13
2018-05-31T00:54:33.815Z,77.96
2018-05-31T00:55:48.487Z,77.77
2018-05-31T00:58:20.543Z,77.83
2018-05-31T00:59:25.104Z,77.72
2018-05-31T01:00:29.731Z,77.63
2018-05-31T01:01:37.465Z,77.60
2018-05-31T01:02:42.120Z,77.61
2018-05-31T01:03:54.622Z,77.60
2018-05-31T01:05:07.049Z,77.56
2018-05-31T01:06:12.019Z,77.48
2018-05-31T01:07:16.660Z,77.39
2018-05-31T01:08:21.292Z,77.40
2018-05-31T01:09:25.886Z,77.39
2018-05-31T01:10:30.892Z,77.42
2018-05-31T01:11:47.438Z,77.50
2018-05-31T01:12:52.060Z,77.43
2018-05-31T01:13:56.672Z,77.34
2018-05-31T01:16:17.694Z,77.54
2018-05-31T01:17:22.700Z,77.74
2018-05-31T01:18:29.612Z,77.84
2018-05-31T01:19:34.141Z,78.04
2018-05-31T01:20:38.689Z,78.16
2018-05-31T01:21:54.604Z,78.13
2018-05-31T01:22:59.779Z,78.03
2018-05-31T01:24:10.547Z,78.04
2018-05-31T01:25:15.135Z,78.04
2018-05-31T01:26:19.765Z,78.04
2018-05-31T01:30:01.445Z,78.08
2018-05-31T01:31:15.539Z,78.02
2018-05-31T01:32:23.346Z,77.93
2018-05-31T01:33:27.970Z,77.86
2018-05-31T01:35:53.318Z,77.77
2018-05-31T01:36:57.950Z,77.79
2018-05-31T01:38:06.745Z,78.12
2018-05-31T01:40:32.988Z,78.28
2018-05-31T01:41:37.687Z,78.27
2018-05-31T01:42:52.345Z,78.35
2018-05-31T01:43:56.874Z,78.33
2018-05-31T01:45:01.955Z,78.36
2018-05-31T01:46:06.567Z,78.34
2018-05-31T01:47:11.140Z,78.42
2018-05-31T01:48:15.821Z,78.44
2018-05-31T01:49:20.859Z,78.45
2018-05-31T01:50:25.433Z,78.58
2018-05-31T01:51:37.804Z,78.87
2018-05-31T01:52:42.370Z,78.81
2018-05-31T01:53:46.992Z,78.70
2018-05-31T01:54:51.584Z,78.72
2018-05-31T01:57:24.184Z,78.96
2018-05-31T01:58:28.729Z,78.96
2018-05-31T01:59:33.338Z,79.11
2018-05-31T02:00:38.166Z,79.40
2018-05-31T02:03:11.085Z,79.69
2018-05-31T02:04:15.733Z,79.75
2018-05-31T02:06:42.052Z,79.72
2018-05-31T02:07:46.651Z,79.73
2018-05-31T02:08:51.177Z,79.63
2018-05-31T02:11:15.005Z,79.47
2018-05-31T02:12:19.726Z,79.36
2018-05-31T02:13:24.430Z,79.31
2018-05-31T02:14:32.498Z,79.28
2018-05-31T02:15:37.067Z,79.30
2018-05-31T02:18:03.257Z,79.35
2018-05-31T02:20:23.497Z,79.67
2018-05-31T02:21:28.146Z,79.71
2018-05-31T02:22:34.948Z,79.73
2018-05-31T02:23:39.727Z,79.72
2018-05-31T02:24:44.617Z,79.76
2018-05-31T02:25:49.327Z,79.77
2018-05-31T02:26:53.973Z,79.76
2018-05-31T02:27:58.658Z,79.74
2018-05-31T02:29:03.201Z,79.70
2018-05-31T02:30:07.802Z,79.68
2018-05-31T02:31:12.999Z,79.72
2018-05-31T02:32:17.578Z,79.77
2018-05-31T02:33:22.140Z,79.83
2018-05-31T02:34:26.669Z,79.85
2018-05-31T02:35:31.274Z,79.86
2018-05-31T02:36:35.952Z,79.93
2018-05-31T02:37:40.997Z,79.89
2018-05-31T02:38:45.702Z,79.92
2018-05-31T02:39:51.098Z,79.99
2018-05-31T02:40:55.786Z,80.05
2018-05-31T02:42:00.384Z,80.16
2018-05-31T02:43:04.929Z,80.20
2018-05-31T02:44:09.997Z,80.19
2018-05-31T02:45:14.519Z,80.19
2018-05-31T02:46:19.190Z,80.26
2018-05-31T02:47:23.849Z,80.36
2018-05-31T02:48:28.577Z,80.29
2018-05-31T02:49:33.249Z,80.18
2018-05-31T02:50:38.196Z,80.21
2018-05-31T02:51:42.710Z,80.28
2018-05-31T02:52:47.395Z,80.28
2018-05-31T02:53:52.075Z,80.27
2018-05-31T02:54:56.670Z,80.25
2018-05-31T02:56:01.250Z,80.38
2018-05-31T02:57:06.281Z,80.53
2018-05-31T02:58:10.928Z,80.76
2018-05-31T02:59:15.565Z,80.83
2018-05-31T03:00:20.131Z,81.00
2018-05-31T03:01:24.663Z,81.11
2018-05-31T03:02:29.218Z,81.35
2018-05-31T03:03:34.188Z,81.49
2018-05-31T03:04:39.822Z,81.64
2018-05-31T03:05:44.870Z,81.74
2018-05-31T03:06:49.498Z,81.73
2018-05-31T03:07:54.098Z,81.73
2018-05-31T03:08:58.798Z,81.77
2018-05-31T03:10:03.785Z,81.78
2018-05-31T03:11:08.445Z,81.76
2018-05-31T03:12:13.076Z,81.85
2018-05-31T03:13:17.767Z,81.92
2018-05-31T03:14:22.304Z,81.82
2018-05-31T03:15:26.885Z,81.72
2018-05-31T03:16:31.818Z,82.12
2018-05-31T03:17:36.456Z,82.87
2018-05-31T03:18:41.059Z,83.65
2018-05-31T03:19:45.628Z,84.06
2018-05-31T03:20:50.356Z,84.26
2018-05-31T03:21:55.013Z,84.27
2018-05-31T03:22:59.927Z,84.33
2018-05-31T03:24:04.497Z,84.51
2018-05-31T03:25:09.153Z,84.66
2018-05-31T03:26:13.802Z,84.82
2018-05-31T03:27:18.331Z,84.92
2018-05-31T03:28:22.891Z,84.93
2018-05-31T03:29:27.785Z,84.96
2018-05-31T03:30:32.434Z,84.98
2018-05-31T03:31:36.938Z,84.95
2018-05-31T03:32:41.677Z,84.82
2018-05-31T03:33:46.369Z,84.69
2018-05-31T03:34:50.918Z,84.56
2018-05-31T03:35:55.877Z,84.40
2018-05-31T03:37:00.534Z,84.21
2018-05-31T03:38:05.068Z,84.06
2018-05-31T03:39:09.613Z,83.99
2018-05-31T03:40:14.165Z,83.96
2018-05-31T03:41:19.089Z,83.83
2018-05-31T03:42:24.118Z,83.89
2018-05-31T03:43:28.812Z,83.93
2018-05-31T03:44:33.319Z,83.93
2018-05-31T03:45:37.947Z,83.86
2018-05-31T03:46:42.559Z,83.74
2018-05-31T03:47:47.061Z,83.60
2018-05-31T03:48:52.145Z,83.49
2018-05-31T03:49:56.954Z,83.47
2018-05-31T03:51:02.084Z,83.42
2018-05-31T03:52:06.759Z,83.50
2018-05-31T03:53:11.908Z,83.61
2018-05-31T03:54:16.577Z,83.77
2018-05-31T03:55:21.781Z,83.78
2018-05-31T03:56:26.458Z,84.00
2018-05-31T03:57:31.108Z,84.18
2018-05-31T03:58:35.856Z,84.17
2018-05-31T03:59:40.562Z,84.06
2018-05-31T04:00:45.249Z,84.00
2018-05-31T04:01:50.313Z,84.08
2018-05-31T04:02:54.989Z,84.20
2018-05-31T04:03:59.667Z,84.27
2018-05-31T04:05:04.341Z,84.26
2018-05-31T04:06:09.072Z,84.28
2018-05-31T04:07:13.751Z,84.26
2018-05-31T04:08:18.821Z,84.11
2018-05-31T04:09:23.494Z,83.94
2018-05-31T04:10:28.226Z,83.93
2018-05-31T04:11:32.942Z,83.92
2018-05-31T04:12:37.740Z,83.82
2018-05-31T04:13:42.410Z,83.70
2018-05-31T04:14:47.548Z,83.60
2018-05-31T04:15:52.261Z,83.48
2018-05-31T04:16:56.978Z,83.39
2018-05-31T04:18:01.646Z,83.33
2018-05-31T04:19:06.329Z,83.25
2018-05-31T04:20:11.028Z,83.12
2018-05-31T04:21:16.050Z,83.03
2018-05-31T04:22:20.733Z,82.91
2018-05-31T04:23:25.420Z,82.77
2018-05-31T04:24:30.139Z,82.68
2018-05-31T04:25:34.816Z,82.63
2018-05-31T04:26:39.648Z,82.53
2018-05-31T04:27:44.773Z,82.44
2018-05-31T04:28:49.441Z,82.46
2018-05-31T04:29:54.093Z,82.39
2018-05-31T04:30:59.161Z,82.31
2018-05-31T04:32:03.828Z,82.27
2018-05-31T04:33:08.527Z,82.51
2018-05-31T04:34:13.989Z,82.68
2018-05-31T04:35:18.644Z,82.79
2018-05-31T04:36:23.330Z,82.84
2018-05-31T04:37:28.035Z,82.82
2018-05-31T04:38:32.766Z,82.78
2018-05-31T04:39:37.466Z,82.69
2018-05-31T04:40:42.758Z,82.49
2018-05-31T04:41:47.643Z,82.60
2018-05-31T04:42:52.383Z,82.75
2018-05-31T04:43:57.058Z,82.79
2018-05-31T04:45:01.750Z,82.66
2018-05-31T04:46:06.456Z,82.53
2018-05-31T04:47:11.505Z,82.57
2018-05-31T04:48:16.165Z,82.63
2018-05-31T04:49:20.802Z,82.66
2018-05-31T04:50:25.505Z,82.73
2018-05-31T04:51:30.211Z,82.73
2018-05-31T04:52:34.874Z,82.67
2018-05-31T04:53:39.902Z,82.68
2018-05-31T04:54:44.562Z,82.68
2018-05-31T04:55:49.202Z,82.72
2018-05-31T04:56:53.725Z,82.66
2018-05-31T04:57:58.435Z,82.58
2018-05-31T04:59:03.589Z,82.49
2018-05-31T05:00:08.154Z,82.41
2018-05-31T05:01:12.845Z,82.34
2018-05-31T05:02:17.537Z,82.34
2018-05-31T05:03:22.242Z,82.29
2018-05-31T05:04:26.947Z,82.26
2018-05-31T05:05:31.625Z,82.17
2018-05-31T05:06:36.359Z,82.23
2018-05-31T05:07:41.121Z,82.15
2018-05-31T05:08:45.785Z,81.99
2018-05-31T05:09:52.174Z,81.89
2018-05-31T05:10:57.749Z,81.92
2018-05-31T05:12:03.688Z,81.82
2018-05-31T05:13:08.284Z,81.87
2018-05-31T05:14:13.060Z,81.87
2018-05-31T05:15:17.857Z,81.80
2018-05-31T05:16:22.968Z,81.70
2018-05-31T05:17:27.964Z,81.60
2018-05-31T05:18:32.522Z,81.39
2018-05-31T05:19:37.076Z,81.34
2018-05-31T05:20:41.735Z,81.26
2018-05-31T05:21:46.321Z,81.17
2018-05-31T05:22:51.010Z,80.91
2018-05-31T05:23:56.076Z,80.85
2018-05-31T05:25:00.650Z,80.78
2018-05-31T05:26:05.437Z,80.60
2018-05-31T05:27:10.029Z,80.25
2018-05-31T05:28:14.578Z,80.13
2018-05-31T05:29:19.134Z,80.07
2018-05-31T05:30:24.335Z,80.12
2018-05-31T05:31:29.229Z,80.10
2018-05-31T05:32:34.025Z,80.02
2018-05-31T05:33:38.614Z,79.78
2018-05-31T05:34:43.680Z,79.46
2018-05-31T05:35:48.408Z,79.33
2018-05-31T05:36:53.442Z,79.20
2018-05-31T05:40:41.035Z,78.47
2018-05-31T05:41:45.761Z,78.12
2018-05-31T05:42:50.367Z,77.90
2018-05-31T05:43:55.536Z,77.68
2018-05-31T05:45:00.450Z,77.51
2018-05-31T05:46:05.533Z,77.43
2018-05-31T05:47:10.284Z,77.36
2018-05-31T05:48:14.847Z,77.21
2018-05-31T05:49:19.832Z,77.03
2018-05-31T05:50:25.624Z,77.15
2018-05-31T05:51:31.325Z,76.97
2018-05-31T05:52:36.124Z,76.71
2018-05-31T05:53:40.856Z,76.75
2018-05-31T05:54:45.501Z,76.54
2018-05-31T05:55:51.083Z,76.27
2018-05-31T05:56:56.112Z,76.03
2018-05-31T05:58:01.613Z,76.11
2018-05-31T05:59:07.219Z,76.74
2018-05-31T06:00:12.021Z,77.20
2018-05-31T06:01:16.776Z,77.14
2018-05-31T06:02:21.580Z,77.15
2018-05-31T06:03:28.002Z,76.87
2018-05-31T06:04:32.767Z,76.37
2018-05-31T06:05:37.383Z,75.99
2018-05-31T06:06:42.068Z,75.58
2018-05-31T06:07:46.812Z,75.27
2018-05-31T06:08:51.620Z,75.31
2018-05-31T06:09:56.639Z,75.23
2018-05-31T06:11:01.423Z,75.13
2018-05-31T06:12:06.142Z,75.06
2018-05-31T06:13:10.913Z,74.73
2018-05-31T06:14:15.640Z,74.47
2018-05-31T06:15:20.364Z,74.69
2018-05-31T06:16:25.443Z,74.83
2018-05-31T06:17:30.150Z,75.02
2018-05-31T06:18:34.853Z,75.23
2018-05-31T06:19:39.910Z,75.37
2018-05-31T06:20:44.722Z,75.24
2018-05-31T06:21:51.967Z,75.21
2018-05-31T06:22:57.203Z,75.12
2018-05-31T06:24:01.959Z,75.01
2018-05-31T06:25:07.005Z,74.80
2018-05-31T06:27:15.343Z,73.97
2018-05-31T06:28:20.120Z,74.21
2018-05-31T06:29:25.347Z,74.04
2018-05-31T06:30:30.138Z,74.30
2018-05-31T06:31:34.917Z,74.30
2018-05-31T06:32:40.064Z,73.75
2018-05-31T06:33:44.887Z,73.36
2018-05-31T06:34:49.600Z,73.22
2018-05-31T06:35:54.629Z,73.42
2018-05-31T06:36:59.352Z,73.39
2018-05-31T06:38:04.062Z,73.62
2018-05-31T06:39:08.928Z,73.82
2018-05-31T06:40:13.962Z,73.50
2018-05-31T06:41:18.835Z,73.08
2018-05-31T06:42:24.066Z,72.51
2018-05-31T06:43:28.874Z,72.17
2018-05-31T06:44:33.800Z,71.85
2018-05-31T06:45:38.554Z,71.43
2018-05-31T06:46:44.214Z,71.04
2018-05-31T06:49:23.077Z,70.96
2018-05-31T06:50:27.904Z,71.13
2018-05-31T06:51:39.940Z,71.25
2018-05-31T06:52:44.693Z,71.79
2018-05-31T06:53:49.492Z,71.96
2018-05-31T06:54:55.222Z,71.88
2018-05-31T06:56:00.954Z,71.70
2018-05-31T06:57:05.989Z,71.77
2018-05-31T06:58:10.755Z,71.38
2018-05-31T06:59:15.532Z,70.86
2018-05-31T07:00:20.328Z,70.63
2018-05-31T07:01:25.503Z,70.33
2018-05-31T07:02:31.081Z,70.13
2018-05-31T07:03:36.141Z,69.94
2018-05-31T07:04:43.388Z,69.69
2018-05-31T07:05:48.115Z,69.17
2018-05-31T07:06:53.412Z,69.21
2018-05-31T07:07:59.939Z,68.97
2018-05-31T07:09:05.202Z,69.02
2018-05-31T07:10:10.521Z,68.72
2018-05-31T07:11:15.269Z,68.49
2018-05-31T07:12:21.804Z,68.52
2018-05-31T07:13:27.067Z,68.34
2018-05-31T07:14:32.060Z,67.99
2018-05-31T07:15:36.871Z,67.86
2018-05-31T07:16:41.589Z,67.79
2018-05-31T07:17:46.691Z,67.54
2018-05-31T07:18:51.688Z,67.61
2018-05-31T07:19:56.416Z,67.33
2018-05-31T07:21:02.451Z,66.90
2018-05-31T07:22:07.146Z,66.72
2018-05-31T07:23:11.926Z,66.89
2018-05-31T07:24:18.860Z,66.82
2018-05-31T07:25:23.891Z,67.00
2018-05-31T07:26:28.641Z,67.23
2018-05-31T07:27:33.245Z,67.60
2018-05-31T07:28:38.201Z,67.73
2018-05-31T07:29:42.944Z,67.95
2018-05-31T07:30:48.254Z,67.81
2018-05-31T07:31:53.149Z,67.56
2018-05-31T07:32:57.912Z,67.15
2018-05-31T07:34:03.257Z,66.81
2018-05-31T07:35:07.919Z,66.91
2018-05-31T07:36:17.494Z,67.14
2018-05-31T07:37:22.449Z,67.14
2018-05-31T07:38:27.366Z,67.25
2018-05-31T07:39:32.585Z,67.22
2018-05-31T07:40:37.446Z,67.20
2018-05-31T07:41:42.190Z,67.11
2018-05-31T07:42:47.005Z,66.96
2018-05-31T07:43:51.993Z,66.82
2018-05-31T07:44:56.884Z,66.62
2018-05-31T07:46:02.059Z,66.52
2018-05-31T07:47:07.298Z,66.21
2018-05-31T07:48:13.952Z,65.76
2018-05-31T07:49:18.888Z,65.61
2018-05-31T07:50:23.808Z,65.54
2018-05-31T07:51:28.800Z,65.53
2018-05-31T07:52:34.748Z,65.40
2018-05-31T07:53:39.346Z,65.11
2018-05-31T07:54:43.922Z,65.30
2018-05-31T07:55:49.040Z,65.01
2018-05-31T07:56:53.846Z,64.79
2018-05-31T07:57:59.878Z,64.78
2018-05-31T07:59:05.185Z,64.58
2018-05-31T08:00:09.835Z,64.69
2018-05-31T08:01:14.457Z,64.44
2018-05-31T08:02:23.215Z,64.84
2018-05-31T08:03:28.119Z,64.93
2018-05-31T08:04:33.406Z,64.51
2018-05-31T08:05:38.765Z,65.01
2018-05-31T08:06:43.866Z,65.09
2018-05-31T08:07:48.583Z,64.90
2018-05-31T08:08:53.360Z,64.81
2018-05-31T08:09:58.120Z,64.82
2018-05-31T08:11:03.076Z,64.78
2018-05-31T08:12:07.885Z,64.50
2018-05-31T08:13:12.651Z,64.69
2018-05-31T08:14:17.277Z,64.82
2018-05-31T08:16:35.698Z,64.96
2018-05-31T08:17:40.800Z,64.35
2018-05-31T08:18:45.560Z,64.39
2018-05-31T08:19:50.359Z,64.24
2018-05-31T08:20:54.960Z,64.11
2018-05-31T08:22:00.073Z,63.71
2018-05-31T08:23:04.716Z,63.37
2018-05-31T08:24:09.841Z,63.13
2018-05-31T08:25:14.522Z,62.82
2018-05-31T08:26:19.228Z,62.65
2018-05-31T08:27:23.865Z,62.99
2018-05-31T08:28:29.414Z,63.02
2018-05-31T08:29:34.029Z,62.86
2018-05-31T08:30:39.094Z,62.50
2018-05-31T08:31:43.854Z,61.93
2018-05-31T08:32:48.609Z,61.38
2018-05-31T08:35:07.711Z,60.34
2018-05-31T08:36:12.623Z,60.35
2018-05-31T08:37:17.708Z,60.19
2018-05-31T08:38:22.510Z,60.05
2018-05-31T08:39:27.205Z,59.94
2018-05-31T08:40:31.850Z,59.90
2018-05-31T08:41:36.420Z,59.75
2018-05-31T08:42:41.008Z,59.66
2018-05-31T08:43:45.861Z,58.96
2018-05-31T08:44:50.541Z,58.30
2018-05-31T08:45:55.103Z,58.26
2018-05-31T08:46:59.680Z,58.20
2018-05-31T08:48:04.474Z,57.82
2018-05-31T08:49:09.202Z,57.77
2018-05-31T08:50:14.233Z,57.43
2018-05-31T08:51:18.897Z,57.25
2018-05-31T08:52:23.521Z,57.69
2018-05-31T08:53:28.238Z,57.73
2018-05-31T08:54:32.915Z,57.50
2018-05-31T08:55:37.479Z,57.91
2018-05-31T08:56:42.072Z,58.39
2018-05-31T08:57:46.804Z,58.28
2018-05-31T08:58:51.350Z,58.31
2018-05-31T08:59:56.070Z,58.13
2018-05-31T09:01:02.192Z,57.87
2018-05-31T09:02:07.278Z,57.49
2018-05-31T09:03:11.979Z,57.50
2018-05-31T09:04:16.582Z,57.31
2018-05-31T09:05:22.577Z,57.01
2018-05-31T09:06:27.341Z,56.44
2018-05-31T09:07:32.070Z,56.36
2018-05-31T09:08:37.161Z,55.96
2018-05-31T09:09:42.093Z,55.63
2018-05-31T09:10:47.371Z,55.85
2018-05-31T09:11:51.940Z,55.77
2018-05-31T09:12:56.840Z,55.28
2018-05-31T09:14:03.460Z,54.86
2018-05-31T09:15:08.934Z,54.68
2018-05-31T09:16:13.519Z,54.75
2018-05-31T09:17:18.074Z,55.02
2018-05-31T09:18:22.820Z,54.86
2018-05-31T09:19:27.522Z,54.88
2018-05-31T09:20:32.146Z,54.78
2018-05-31T09:21:37.120Z,54.52
2018-05-31T09:22:42.166Z,54.21
2018-05-31T09:23:46.754Z,53.55
2018-05-31T09:24:51.430Z,53.36
2018-05-31T09:25:56.002Z,53.39
2018-05-31T09:27:00.980Z,53.18
2018-05-31T09:28:06.719Z,52.96
2018-05-31T09:29:11.713Z,53.24
2018-05-31T09:30:23.822Z,53.41
2018-05-31T09:31:28.629Z,53.44
2018-05-31T09:32:33.866Z,53.80
2018-05-31T09:33:38.444Z,53.54
2018-05-31T09:34:43.335Z,53.14
2018-05-31T09:35:48.168Z,53.00
2018-05-31T09:36:52.890Z,52.96
2018-05-31T09:37:57.497Z,53.15
2018-05-31T09:39:04.004Z,52.99
2018-05-31T09:40:09.385Z,52.60
2018-05-31T09:41:14.615Z,52.68
2018-05-31T09:42:19.391Z,52.76
2018-05-31T09:43:24.030Z,52.75
2018-05-31T09:44:28.807Z,52.56
2018-05-31T09:45:33.678Z,52.03
2018-05-31T09:46:38.315Z,51.97
2018-05-31T09:47:43.390Z,52.18
2018-05-31T09:48:48.197Z,51.71
2018-05-31T09:49:52.742Z,51.52
2018-05-31T09:50:57.488Z,51.42
2018-05-31T09:52:02.307Z,51.06
2018-05-31T09:53:06.982Z,51.29
2018-05-31T09:54:12.069Z,51.49
2018-05-31T09:55:16.680Z,51.80
2018-05-31T09:56:21.471Z,52.05
2018-05-31T09:57:26.490Z,52.13
2018-05-31T09:58:31.146Z,52.19
2018-05-31T09:59:35.911Z,51.72
2018-05-31T10:00:41.034Z,51.38
2018-05-31T10:01:45.689Z,51.30
2018-05-31T10:02:51.120Z,50.79
2018-05-31T10:03:55.735Z,50.19
2018-05-31T10:05:00.323Z,50.25
2018-05-31T10:06:05.062Z,50.41
2018-05-31T10:07:10.235Z,50.55
2018-05-31T10:08:15.013Z,50.45
2018-05-31T10:09:19.721Z,50.53
2018-05-31T10:10:24.328Z,50.66
2018-05-31T10:11:29.106Z,50.34
2018-05-31T10:12:33.800Z,50.04
2018-05-31T10:13:38.892Z,49.82
2018-05-31T10:14:43.452Z,49.39
2018-05-31T10:15:48.113Z,49.25
2018-05-31T10:16:52.815Z,49.28
2018-05-31T10:17:57.358Z,49.47
2018-05-31T10:19:02.074Z,49.32
2018-05-31T10:20:07.610Z,49.22
2018-05-31T10:21:12.207Z,49.10
2018-05-31T10:22:16.822Z,49.17
2018-05-31T10:23:21.579Z,49.35
2018-05-31T10:24:26.273Z,49.51
2018-05-31T10:25:30.861Z,49.39
2018-05-31T10:26:35.859Z,49.44
2018-05-31T10:27:40.537Z,49.45
2018-05-31T10:28:45.250Z,49.32
2018-05-31T10:29:49.984Z,48.92
2018-05-31T10:30:54.735Z,48.60
2018-05-31T10:31:59.449Z,48.49
2018-05-31T10:33:04.403Z,48.33
2018-05-31T10:34:09.090Z,48.51
2018-05-31T10:35:13.944Z,48.68
2018-05-31T10:36:18.570Z,48.49
2018-05-31T10:37:24.114Z,48.71
2018-05-31T10:42:36.632Z,48.53
2018-05-31T10:43:42.917Z,48.55
2018-05-31T10:44:47.797Z,48.41
2018-05-31T10:53:52.208Z,49.74
2018-05-31T10:54:57.153Z,49.82
2018-05-31T10:56:01.871Z,49.94
2018-05-31T10:57:07.470Z,50.10
2018-05-31T10:58:12.087Z,50.57
2018-05-31T10:59:27.727Z,51.95
2018-05-31T11:00:54.954Z,53.34
2018-05-31T11:02:00.978Z,54.18
2018-05-31T11:03:06.734Z,54.75
2018-05-31T11:04:11.532Z,55.55
2018-05-31T11:05:17.183Z,55.76
2018-05-31T11:06:22.429Z,55.84
2018-05-31T11:07:28.340Z,56.09
2018-05-31T11:08:35.169Z,56.43
2018-05-31T11:09:40.673Z,54.96
2018-05-31T11:10:45.562Z,53.29
2018-05-31T11:11:50.404Z,52.19
2018-05-31T11:12:55.426Z,50.51
2018-05-31T11:14:00.000Z,50.26
2018-05-31T11:15:05.900Z,49.42
2018-05-31T11:16:24.629Z,49.56
2018-05-31T11:18:52.192Z,50.10
2018-05-31T11:20:01.960Z,51.02
2018-05-31T11:21:09.280Z,53.63
2018-05-31T11:22:31.240Z,57.81
2018-05-31T11:23:54.918Z,61.73
2018-05-31T11:25:12.057Z,63.39
2018-05-31T11:27:40.624Z,64.63
2018-05-31T11:28:46.866Z,63.90
2018-05-31T11:29:53.098Z,62.72
2018-05-31T11:30:58.067Z,62.28
2018-05-31T11:32:08.715Z,61.51
2018-05-31T11:33:23.904Z,61.07
2018-05-31T11:34:34.708Z,60.53
2018-05-31T11:35:39.578Z,60.17
2018-05-31T11:36:44.389Z,59.86
2018-05-31T11:37:49.435Z,59.70
2018-05-31T11:38:54.235Z,59.53
2018-05-31T11:40:00.366Z,59.57
2018-05-31T11:41:05.201Z,59.60
2018-05-31T11:42:10.049Z,59.38
2018-05-31T11:43:14.840Z,59.18
2018-05-31T11:44:19.675Z,59.04
2018-05-31T11:45:24.833Z,58.97
2018-05-31T11:46:31.616Z,58.97
2018-05-31T11:47:36.213Z,59.04
2018-05-31T11:48:40.969Z,59.00
2018-05-31T11:49:45.593Z,58.83
2018-05-31T11:50:50.354Z,58.61
2018-05-31T11:51:56.396Z,58.53
2018-05-31T11:53:01.588Z,58.45
2018-05-31T11:54:06.362Z,58.28
2018-05-31T11:55:11.140Z,58.42
2018-05-31T11:56:16.511Z,58.39
2018-05-31T11:57:23.182Z,58.58
2018-05-31T11:58:30.536Z,58.51
2018-05-31T11:59:36.491Z,58.76
2018-05-31T12:00:41.736Z,59.38
2018-05-31T12:01:51.676Z,60.08
2018-05-31T12:02:56.567Z,60.36
2018-05-31T12:04:01.541Z,60.54
2018-05-31T12:05:06.472Z,60.28
2018-05-31T12:06:23.186Z,60.15
2018-05-31T12:07:30.046Z,60.20
2018-05-31T12:08:35.167Z,59.71
2018-05-31T12:09:41.037Z,59.30
2018-05-31T12:10:45.822Z,59.21
2018-05-31T12:11:50.545Z,59.22
2018-05-31T12:13:00.349Z,59.40
2018-05-31T12:14:05.176Z,59.82
2018-05-31T13:01:52.384Z,59.46
2018-05-31T13:02:57.154Z,59.49
2018-05-31T13:04:01.907Z,59.38
2018-05-31T13:05:06.854Z,59.38
2018-05-31T13:06:11.664Z,59.50
2018-05-31T13:07:16.719Z,59.38
2018-05-31T13:08:21.426Z,60.00
2018-05-31T13:09:26.398Z,60.66
2018-05-31T13:10:31.047Z,61.14
2018-05-31T13:11:36.227Z,61.18
2018-05-31T13:12:41.143Z,61.15
2018-05-31T13:13:46.296Z,61.03
2018-05-31T13:14:51.046Z,60.95
2018-05-31T13:15:55.708Z,61.00
2018-05-31T13:17:00.579Z,60.93
2018-05-31T13:18:05.256Z,60.80
2018-05-31T13:19:09.989Z,60.66
2018-05-31T13:20:15.052Z,60.70
2018-05-31T13:21:19.845Z,61.10
2018-05-31T13:22:24.690Z,61.23
2018-05-31T13:23:29.583Z,61.42
2018-05-31T13:24:34.178Z,61.60
2018-05-31T13:25:40.291Z,61.58
2018-05-31T13:26:46.219Z,61.35
2018-05-31T13:27:50.811Z,61.31
2018-05-31T13:28:55.613Z,61.15
2018-05-31T13:30:00.218Z,61.10
2018-05-31T13:31:04.989Z,61.12
2018-05-31T13:32:09.730Z,61.12
2018-05-31T13:33:14.992Z,60.86
2018-05-31T13:34:19.665Z,60.63
2018-05-31T13:35:24.326Z,60.49
2018-05-31T13:36:29.042Z,60.20
2018-05-31T13:37:33.619Z,60.14
2018-05-31T13:38:38.476Z,60.03
2018-05-31T13:39:44.270Z,59.86
2018-05-31T13:40:48.875Z,60.41
2018-05-31T13:41:53.595Z,60.71
2018-05-31T13:42:58.236Z,61.09
2018-05-31T13:44:02.892Z,61.23
2018-05-31T13:45:07.910Z,61.38
2018-05-31T13:46:13.042Z,61.38
2018-05-31T13:47:18.166Z,61.16
2018-05-31T13:48:22.943Z,60.89
2018-05-31T13:49:27.499Z,60.46
2018-05-31T13:50:32.075Z,60.03
2018-05-31T13:51:36.767Z,60.06
2018-05-31T13:52:41.804Z,60.17
2018-05-31T13:53:46.389Z,60.67
2018-05-31T13:54:51.112Z,61.20
2018-05-31T13:55:55.741Z,61.49
2018-05-31T13:57:00.456Z,61.54
2018-05-31T13:58:05.097Z,61.54
2018-05-31T13:59:10.029Z,61.44
2018-05-31T14:00:14.753Z,61.04
2018-05-31T14:01:19.338Z,60.56
2018-05-31T14:02:24.068Z,60.15
2018-05-31T14:03:28.696Z,59.71
2018-05-31T14:04:33.399Z,58.96
2018-05-31T14:05:38.292Z,58.51
2018-05-31T14:06:42.976Z,57.77
2018-05-31T14:07:47.589Z,57.26
2018-05-31T14:08:52.417Z,58.94
2018-05-31T14:09:57.929Z,59.48
2018-05-31T14:11:02.620Z,60.13
2018-05-31T14:12:07.632Z,60.03
2018-05-31T14:13:12.326Z,59.70
2018-05-31T14:14:17.058Z,59.10
2018-05-31T14:15:21.765Z,58.67
2018-05-31T14:16:26.433Z,58.71
2018-05-31T14:17:31.139Z,57.88
2018-05-31T14:18:35.856Z,57.24
2018-05-31T14:19:40.474Z,56.75
2018-05-31T14:20:45.201Z,57.02
2018-05-31T14:21:49.933Z,56.96
2018-05-31T14:22:54.638Z,56.02
2018-05-31T14:24:00.158Z,56.37
2018-05-31T14:25:05.721Z,56.34
2018-05-31T14:26:10.467Z,56.88
2018-05-31T14:27:15.481Z,57.21
2018-05-31T14:28:20.206Z,57.29
2018-05-31T14:29:24.901Z,57.06
2018-05-31T14:30:29.880Z,57.10
2018-05-31T14:31:34.715Z,56.82
2018-05-31T14:32:39.388Z,56.71
2018-05-31T14:33:44.255Z,56.81
2018-05-31T14:34:49.079Z,56.53
2018-05-31T14:35:53.882Z,56.52
2018-05-31T14:36:59.151Z,57.02
2018-05-31T14:38:03.924Z,57.48
2018-05-31T14:39:08.663Z,57.44
2018-05-31T14:40:13.370Z,56.96
2018-05-31T14:41:18.087Z,57.14
2018-05-31T14:42:22.753Z,57.62
2018-05-31T14:43:27.818Z,58.35
2018-05-31T14:44:32.565Z,58.68
2018-05-31T14:45:37.266Z,58.30
2018-05-31T14:46:41.995Z,56.45
2018-05-31T14:47:46.870Z,54.93
2018-05-31T14:48:51.573Z,54.74
2018-05-31T14:49:56.623Z,55.61
2018-05-31T14:51:01.311Z,55.79
2018-05-31T14:52:05.982Z,54.76
2018-05-31T14:53:10.657Z,54.62
2018-05-31T14:54:15.382Z,54.10
2018-05-31T14:55:20.067Z,54.68
2018-05-31T14:56:25.197Z,55.57
2018-05-31T14:57:29.830Z,55.50
2018-05-31T14:58:34.506Z,54.89
2018-05-31T14:59:39.263Z,54.39
2018-05-31T15:00:45.173Z,53.61
2018-05-31T15:01:49.991Z,51.70
2018-05-31T15:02:55.118Z,52.24
2018-05-31T15:03:59.859Z,52.18
2018-05-31T15:05:04.661Z,52.84
2018-05-31T15:06:09.483Z,53.26
2018-05-31T15:07:14.221Z,53.05
2018-05-31T15:08:19.241Z,53.27
2018-05-31T15:09:24.894Z,53.31
2018-05-31T15:10:29.577Z,53.07
2018-05-31T15:11:34.344Z,52.76
2018-05-31T15:12:39.124Z,52.46
2018-05-31T15:13:44.745Z,51.83
2018-05-31T15:14:49.489Z,51.65
2018-05-31T15:15:54.539Z,51.54
2018-05-31T15:16:59.214Z,51.45
2018-05-31T15:18:03.900Z,52.11
2018-05-31T15:19:08.660Z,52.26
2018-05-31T15:20:13.357Z,52.32
2018-05-31T15:21:18.056Z,52.42
2018-05-31T15:22:23.114Z,52.48
2018-05-31T15:23:27.800Z,53.06
2018-05-31T15:24:32.523Z,53.77
2018-05-31T15:25:37.252Z,53.79
2018-05-31T15:26:41.939Z,53.94
2018-05-31T15:27:46.661Z,53.94
2018-05-31T15:28:51.626Z,53.95
2018-05-31T15:29:56.355Z,53.97
2018-05-31T15:31:01.021Z,54.25
2018-05-31T15:32:05.730Z,54.66
2018-05-31T15:33:10.442Z,55.71
2018-05-31T15:34:15.122Z,55.98
2018-05-31T15:35:20.150Z,55.81
2018-05-31T15:36:24.968Z,55.67